sensor_id;sensor_type;location;lat;lon;timestamp;P1;durP1;ratioP1;P2;durP2;ratioP2
52386;SDS011;38317;53.084;6.960;2022-08-25T00:00:17;3.45;;;1.77;;
52386;SDS011;38317;53.084;6.960;2022-08-25T00:02:46;4.60;;;2.10;;
52386;SDS011;38317;53.084;6.960;2022-08-25T00:05:13;2.35;;;1.40;;
52386;SDS011;38317;53.084;6.960;2022-08-25T00:07:39;1.92;;;1.50;;
52386;SDS011;38317;53.084;6.960;2022-08-25T00:10:05;2.25;;;1.50;;
52386;SDS011;38317;53.084;6.960;2022-08-25T00:12:31;2.75;;;1.60;;
52386;SDS011;38317;53.084;6.960;2022-08-25T00:14:57;3.75;;;1.63;;
52386;SDS011;38317;53.084;6.960;2022-08-25T00:17:23;2.80;;;1.77;;
52386;SDS011;38317;53.084;6.960;2022-08-25T00:19:49;4.25;;;1.88;;
52386;SDS011;38317;53.084;6.960;2022-08-25T00:22:15;3.13;;;1.58;;
52386;SDS011;38317;53.084;6.960;2022-08-25T00:24:40;3.70;;;1.60;;
52386;SDS011;38317;53.084;6.960;2022-08-25T00:27:06;2.88;;;1.80;;
52386;SDS011;38317;53.084;6.960;2022-08-25T00:29:32;3.70;;;1.40;;
52386;SDS011;38317;53.084;6.960;2022-08-25T00:31:58;3.38;;;1.60;;
52386;SDS011;38317;53.084;6.960;2022-08-25T00:34:28;3.78;;;1.50;;
52386;SDS011;38317;53.084;6.960;2022-08-25T00:36:57;2.40;;;1.27;;
52386;SDS011;38317;53.084;6.960;2022-08-25T00:39:22;3.53;;;1.80;;
52386;SDS011;38317;53.084;6.960;2022-08-25T00:41:49;2.85;;;1.50;;
52386;SDS011;38317;53.084;6.960;2022-08-25T00:44:17;2.60;;;1.35;;
52386;SDS011;38317;53.084;6.960;2022-08-25T00:46:48;2.15;;;1.40;;
52386;SDS011;38317;53.084;6.960;2022-08-25T00:52:06;2.88;;;1.48;;
52386;SDS011;38317;53.084;6.960;2022-08-25T00:57:24;3.85;;;1.60;;
52386;SDS011;38317;53.084;6.960;2022-08-25T00:59:53;2.20;;;1.45;;
52386;SDS011;38317;53.084;6.960;2022-08-25T01:02:20;5.07;;;2.05;;
52386;SDS011;38317;53.084;6.960;2022-08-25T01:04:47;3.20;;;1.80;;
52386;SDS011;38317;53.084;6.960;2022-08-25T01:07:13;3.42;;;1.63;;
52386;SDS011;38317;53.084;6.960;2022-08-25T01:09:40;2.97;;;1.40;;
52386;SDS011;38317;53.084;6.960;2022-08-25T01:12:08;2.40;;;1.52;;
52386;SDS011;38317;53.084;6.960;2022-08-25T01:14:34;2.38;;;1.60;;
52386;SDS011;38317;53.084;6.960;2022-08-25T01:17:01;5.18;;;1.83;;
52386;SDS011;38317;53.084;6.960;2022-08-25T01:19:28;3.63;;;1.50;;
52386;SDS011;38317;53.084;6.960;2022-08-25T01:21:57;3.10;;;1.48;;
52386;SDS011;38317;53.084;6.960;2022-08-25T01:26:58;2.35;;;1.50;;
52386;SDS011;38317;53.084;6.960;2022-08-25T01:29:25;2.72;;;1.60;;
52386;SDS011;38317;53.084;6.960;2022-08-25T01:31:56;3.83;;;1.50;;
52386;SDS011;38317;53.084;6.960;2022-08-25T01:34:25;2.25;;;1.60;;
52386;SDS011;38317;53.084;6.960;2022-08-25T01:36:52;3.83;;;2.00;;
52386;SDS011;38317;53.084;6.960;2022-08-25T01:39:18;2.83;;;1.70;;
52386;SDS011;38317;53.084;6.960;2022-08-25T01:44:13;3.78;;;1.85;;
52386;SDS011;38317;53.084;6.960;2022-08-25T01:46:39;2.83;;;1.38;;
52386;SDS011;38317;53.084;6.960;2022-08-25T01:49:06;3.45;;;1.60;;
52386;SDS011;38317;53.084;6.960;2022-08-25T01:51:33;4.88;;;1.83;;
52386;SDS011;38317;53.084;6.960;2022-08-25T01:54:06;2.67;;;1.55;;
52386;SDS011;38317;53.084;6.960;2022-08-25T01:56:32;4.53;;;1.63;;
52386;SDS011;38317;53.084;6.960;2022-08-25T01:58:58;4.20;;;1.70;;
52386;SDS011;38317;53.084;6.960;2022-08-25T02:01:23;3.70;;;1.88;;
52386;SDS011;38317;53.084;6.960;2022-08-25T02:03:51;3.88;;;1.90;;
52386;SDS011;38317;53.084;6.960;2022-08-25T02:06:20;2.67;;;1.48;;
52386;SDS011;38317;53.084;6.960;2022-08-25T02:09:00;2.65;;;1.35;;
52386;SDS011;38317;53.084;6.960;2022-08-25T02:11:31;3.28;;;1.48;;
52386;SDS011;38317;53.084;6.960;2022-08-25T02:13:59;3.50;;;1.80;;
52386;SDS011;38317;53.084;6.960;2022-08-25T02:16:26;4.35;;;1.67;;
52386;SDS011;38317;53.084;6.960;2022-08-25T02:18:54;3.17;;;1.60;;
52386;SDS011;38317;53.084;6.960;2022-08-25T02:21:20;4.60;;;1.55;;
52386;SDS011;38317;53.084;6.960;2022-08-25T02:23:46;3.97;;;1.60;;
52386;SDS011;38317;53.084;6.960;2022-08-25T02:26:12;2.67;;;1.70;;
52386;SDS011;38317;53.084;6.960;2022-08-25T02:28:43;3.80;;;1.67;;
52386;SDS011;38317;53.084;6.960;2022-08-25T02:31:12;4.65;;;1.75;;
52386;SDS011;38317;53.084;6.960;2022-08-25T02:33:39;3.17;;;1.70;;
52386;SDS011;38317;53.084;6.960;2022-08-25T02:36:05;3.25;;;1.70;;
52386;SDS011;38317;53.084;6.960;2022-08-25T02:38:31;4.30;;;1.60;;
52386;SDS011;38317;53.084;6.960;2022-08-25T02:40:58;3.05;;;1.90;;
52386;SDS011;38317;53.084;6.960;2022-08-25T02:43:25;3.53;;;1.70;;
52386;SDS011;38317;53.084;6.960;2022-08-25T02:45:53;3.05;;;1.77;;
52386;SDS011;38317;53.084;6.960;2022-08-25T02:48:23;3.92;;;1.77;;
52386;SDS011;38317;53.084;6.960;2022-08-25T02:50:49;4.72;;;1.88;;
52386;SDS011;38317;53.084;6.960;2022-08-25T02:53:17;4.35;;;1.75;;
52386;SDS011;38317;53.084;6.960;2022-08-25T02:55:44;2.33;;;1.65;;
52386;SDS011;38317;53.084;6.960;2022-08-25T02:58:10;3.38;;;2.00;;
52386;SDS011;38317;53.084;6.960;2022-08-25T03:00:36;4.45;;;1.90;;
52386;SDS011;38317;53.084;6.960;2022-08-25T03:03:02;3.78;;;1.73;;
52386;SDS011;38317;53.084;6.960;2022-08-25T03:05:29;3.30;;;1.70;;
52386;SDS011;38317;53.084;6.960;2022-08-25T03:07:55;3.78;;;1.60;;
52386;SDS011;38317;53.084;6.960;2022-08-25T03:10:20;3.85;;;1.90;;
52386;SDS011;38317;53.084;6.960;2022-08-25T03:12:46;3.40;;;1.85;;
52386;SDS011;38317;53.084;6.960;2022-08-25T03:15:13;3.05;;;1.80;;
52386;SDS011;38317;53.084;6.960;2022-08-25T03:17:41;3.55;;;1.75;;
52386;SDS011;38317;53.084;6.960;2022-08-25T03:20:07;3.55;;;1.90;;
52386;SDS011;38317;53.084;6.960;2022-08-25T03:22:34;4.22;;;1.88;;
52386;SDS011;38317;53.084;6.960;2022-08-25T03:25:00;3.90;;;1.85;;
52386;SDS011;38317;53.084;6.960;2022-08-25T03:27:45;2.80;;;1.60;;
52386;SDS011;38317;53.084;6.960;2022-08-25T03:30:13;3.63;;;1.90;;
52386;SDS011;38317;53.084;6.960;2022-08-25T03:32:40;2.65;;;1.75;;
52386;SDS011;38317;53.084;6.960;2022-08-25T03:35:06;3.53;;;1.95;;
52386;SDS011;38317;53.084;6.960;2022-08-25T03:37:33;3.38;;;1.88;;
52386;SDS011;38317;53.084;6.960;2022-08-25T03:40:00;3.28;;;1.85;;
52386;SDS011;38317;53.084;6.960;2022-08-25T03:42:31;5.93;;;1.85;;
52386;SDS011;38317;53.084;6.960;2022-08-25T03:44:56;2.75;;;1.70;;
52386;SDS011;38317;53.084;6.960;2022-08-25T03:47:23;3.00;;;1.80;;
52386;SDS011;38317;53.084;6.960;2022-08-25T03:49:50;2.60;;;1.67;;
52386;SDS011;38317;53.084;6.960;2022-08-25T03:52:16;3.80;;;1.90;;
52386;SDS011;38317;53.084;6.960;2022-08-25T03:54:42;4.65;;;1.70;;
52386;SDS011;38317;53.084;6.960;2022-08-25T03:57:09;3.72;;;1.73;;
52386;SDS011;38317;53.084;6.960;2022-08-25T03:59:35;4.20;;;1.90;;
52386;SDS011;38317;53.084;6.960;2022-08-25T04:02:03;5.75;;;1.92;;
52386;SDS011;38317;53.084;6.960;2022-08-25T04:04:29;3.45;;;1.95;;
52386;SDS011;38317;53.084;6.960;2022-08-25T04:06:55;2.65;;;1.70;;
52386;SDS011;38317;53.084;6.960;2022-08-25T04:09:22;3.25;;;2.13;;
52386;SDS011;38317;53.084;6.960;2022-08-25T04:11:49;3.83;;;1.73;;
52386;SDS011;38317;53.084;6.960;2022-08-25T04:14:16;3.70;;;2.20;;
52386;SDS011;38317;53.084;6.960;2022-08-25T04:16:42;4.90;;;2.55;;
52386;SDS011;38317;53.084;6.960;2022-08-25T04:19:08;4.20;;;2.05;;
52386;SDS011;38317;53.084;6.960;2022-08-25T04:21:35;4.57;;;2.13;;
52386;SDS011;38317;53.084;6.960;2022-08-25T04:24:02;3.78;;;2.33;;
52386;SDS011;38317;53.084;6.960;2022-08-25T04:26:30;4.18;;;2.42;;
52386;SDS011;38317;53.084;6.960;2022-08-25T04:29:01;4.53;;;2.03;;
52386;SDS011;38317;53.084;6.960;2022-08-25T04:31:29;5.00;;;2.38;;
52386;SDS011;38317;53.084;6.960;2022-08-25T04:33:56;7.50;;;2.90;;
52386;SDS011;38317;53.084;6.960;2022-08-25T04:36:22;4.35;;;2.45;;
52386;SDS011;38317;53.084;6.960;2022-08-25T04:38:48;4.20;;;2.15;;
52386;SDS011;38317;53.084;6.960;2022-08-25T04:41:16;4.70;;;2.30;;
52386;SDS011;38317;53.084;6.960;2022-08-25T04:43:43;4.10;;;2.28;;
52386;SDS011;38317;53.084;6.960;2022-08-25T04:46:20;4.40;;;2.35;;
52386;SDS011;38317;53.084;6.960;2022-08-25T04:48:48;5.35;;;2.72;;
52386;SDS011;38317;53.084;6.960;2022-08-25T04:51:17;5.45;;;2.72;;
52386;SDS011;38317;53.084;6.960;2022-08-25T04:53:44;5.28;;;2.63;;
52386;SDS011;38317;53.084;6.960;2022-08-25T04:56:14;5.93;;;2.70;;
52386;SDS011;38317;53.084;6.960;2022-08-25T04:58:41;4.03;;;2.70;;
52386;SDS011;38317;53.084;6.960;2022-08-25T05:01:09;4.82;;;2.55;;
52386;SDS011;38317;53.084;6.960;2022-08-25T05:03:39;5.55;;;2.75;;
52386;SDS011;38317;53.084;6.960;2022-08-25T05:06:05;4.18;;;2.60;;
52386;SDS011;38317;53.084;6.960;2022-08-25T05:08:32;4.65;;;2.70;;
52386;SDS011;38317;53.084;6.960;2022-08-25T05:10:58;5.40;;;2.70;;
52386;SDS011;38317;53.084;6.960;2022-08-25T05:13:28;5.00;;;3.00;;
52386;SDS011;38317;53.084;6.960;2022-08-25T05:15:55;5.05;;;2.80;;
52386;SDS011;38317;53.084;6.960;2022-08-25T05:18:24;5.38;;;3.00;;
52386;SDS011;38317;53.084;6.960;2022-08-25T05:20:51;6.40;;;2.70;;
52386;SDS011;38317;53.084;6.960;2022-08-25T05:23:18;5.47;;;3.00;;
52386;SDS011;38317;53.084;6.960;2022-08-25T05:25:45;5.40;;;3.00;;
52386;SDS011;38317;53.084;6.960;2022-08-25T05:28:11;6.00;;;3.22;;
52386;SDS011;38317;53.084;6.960;2022-08-25T05:30:39;6.03;;;2.90;;
52386;SDS011;38317;53.084;6.960;2022-08-25T05:33:06;5.80;;;3.28;;
52386;SDS011;38317;53.084;6.960;2022-08-25T05:35:32;5.28;;;2.92;;
52386;SDS011;38317;53.084;6.960;2022-08-25T05:37:58;6.45;;;3.40;;
52386;SDS011;38317;53.084;6.960;2022-08-25T05:40:23;5.63;;;3.05;;
52386;SDS011;38317;53.084;6.960;2022-08-25T05:42:49;6.43;;;3.35;;
52386;SDS011;38317;53.084;6.960;2022-08-25T05:45:16;6.47;;;3.15;;
52386;SDS011;38317;53.084;6.960;2022-08-25T05:47:42;5.25;;;3.17;;
52386;SDS011;38317;53.084;6.960;2022-08-25T05:50:08;5.55;;;2.78;;
52386;SDS011;38317;53.084;6.960;2022-08-25T05:52:35;4.93;;;3.13;;
52386;SDS011;38317;53.084;6.960;2022-08-25T05:55:00;5.45;;;3.20;;
52386;SDS011;38317;53.084;6.960;2022-08-25T05:57:27;6.97;;;3.45;;
52386;SDS011;38317;53.084;6.960;2022-08-25T05:59:53;7.22;;;3.60;;
52386;SDS011;38317;53.084;6.960;2022-08-25T06:02:19;5.93;;;3.15;;
52386;SDS011;38317;53.084;6.960;2022-08-25T06:05:03;6.93;;;3.30;;
52386;SDS011;38317;53.084;6.960;2022-08-25T06:07:29;6.38;;;3.47;;
52386;SDS011;38317;53.084;6.960;2022-08-25T06:09:55;7.50;;;3.45;;
52386;SDS011;38317;53.084;6.960;2022-08-25T06:12:21;4.72;;;3.00;;
52386;SDS011;38317;53.084;6.960;2022-08-25T06:14:46;7.50;;;3.47;;
52386;SDS011;38317;53.084;6.960;2022-08-25T06:17:13;6.88;;;3.40;;
52386;SDS011;38317;53.084;6.960;2022-08-25T06:19:39;6.47;;;3.63;;
52386;SDS011;38317;53.084;6.960;2022-08-25T06:22:05;5.93;;;3.22;;
52386;SDS011;38317;53.084;6.960;2022-08-25T06:24:31;6.70;;;3.47;;
52386;SDS011;38317;53.084;6.960;2022-08-25T06:26:57;8.55;;;3.70;;
52386;SDS011;38317;53.084;6.960;2022-08-25T06:29:23;9.25;;;3.85;;
52386;SDS011;38317;53.084;6.960;2022-08-25T06:31:50;7.13;;;3.40;;
52386;SDS011;38317;53.084;6.960;2022-08-25T06:34:16;8.57;;;4.50;;
52386;SDS011;38317;53.084;6.960;2022-08-25T06:36:43;8.13;;;3.72;;
52386;SDS011;38317;53.084;6.960;2022-08-25T06:39:09;9.88;;;4.30;;
52386;SDS011;38317;53.084;6.960;2022-08-25T06:41:35;8.30;;;3.80;;
52386;SDS011;38317;53.084;6.960;2022-08-25T06:44:01;7.03;;;3.72;;
52386;SDS011;38317;53.084;6.960;2022-08-25T06:46:28;5.68;;;3.22;;
52386;SDS011;38317;53.084;6.960;2022-08-25T06:48:55;5.63;;;3.28;;
52386;SDS011;38317;53.084;6.960;2022-08-25T06:51:22;5.90;;;3.45;;
52386;SDS011;38317;53.084;6.960;2022-08-25T06:53:49;6.47;;;3.67;;
52386;SDS011;38317;53.084;6.960;2022-08-25T06:56:16;5.07;;;3.50;;
52386;SDS011;38317;53.084;6.960;2022-08-25T06:58:43;6.55;;;3.63;;
52386;SDS011;38317;53.084;6.960;2022-08-25T07:01:11;6.13;;;3.55;;
52386;SDS011;38317;53.084;6.960;2022-08-25T07:03:57;11.23;;;4.03;;
52386;SDS011;38317;53.084;6.960;2022-08-25T07:06:27;6.00;;;3.25;;
52386;SDS011;38317;53.084;6.960;2022-08-25T07:08:55;7.85;;;3.83;;
52386;SDS011;38317;53.084;6.960;2022-08-25T07:11:22;6.68;;;3.85;;
52386;SDS011;38317;53.084;6.960;2022-08-25T07:13:48;4.63;;;2.80;;
52386;SDS011;38317;53.084;6.960;2022-08-25T07:16:15;6.10;;;3.17;;
52386;SDS011;38317;53.084;6.960;2022-08-25T07:18:44;6.13;;;3.25;;
52386;SDS011;38317;53.084;6.960;2022-08-25T07:21:11;7.53;;;3.40;;
52386;SDS011;38317;53.084;6.960;2022-08-25T07:23:39;8.48;;;3.22;;
52386;SDS011;38317;53.084;6.960;2022-08-25T07:26:06;5.82;;;3.42;;
52386;SDS011;38317;53.084;6.960;2022-08-25T07:28:36;6.00;;;2.80;;
52386;SDS011;38317;53.084;6.960;2022-08-25T07:31:03;5.90;;;3.25;;
52386;SDS011;38317;53.084;6.960;2022-08-25T07:33:29;5.35;;;3.00;;
52386;SDS011;38317;53.084;6.960;2022-08-25T07:35:55;6.22;;;2.85;;
52386;SDS011;38317;53.084;6.960;2022-08-25T07:38:21;6.88;;;3.00;;
52386;SDS011;38317;53.084;6.960;2022-08-25T07:40:47;6.00;;;3.00;;
52386;SDS011;38317;53.084;6.960;2022-08-25T07:43:19;5.25;;;2.80;;
52386;SDS011;38317;53.084;6.960;2022-08-25T07:45:46;5.15;;;2.45;;
52386;SDS011;38317;53.084;6.960;2022-08-25T07:48:12;5.68;;;3.30;;
52386;SDS011;38317;53.084;6.960;2022-08-25T07:50:39;5.20;;;2.45;;
52386;SDS011;38317;53.084;6.960;2022-08-25T07:53:07;6.38;;;2.97;;
52386;SDS011;38317;53.084;6.960;2022-08-25T07:55:34;6.85;;;3.10;;
52386;SDS011;38317;53.084;6.960;2022-08-25T07:58:01;6.10;;;2.67;;
52386;SDS011;38317;53.084;6.960;2022-08-25T08:00:28;4.85;;;2.60;;
52386;SDS011;38317;53.084;6.960;2022-08-25T08:02:57;4.70;;;2.50;;
52386;SDS011;38317;53.084;6.960;2022-08-25T08:05:24;5.55;;;2.60;;
52386;SDS011;38317;53.084;6.960;2022-08-25T08:07:52;5.88;;;2.67;;
52386;SDS011;38317;53.084;6.960;2022-08-25T08:10:18;5.85;;;2.45;;
52386;SDS011;38317;53.084;6.960;2022-08-25T08:12:45;6.72;;;2.20;;
52386;SDS011;38317;53.084;6.960;2022-08-25T08:15:11;4.85;;;2.35;;
52386;SDS011;38317;53.084;6.960;2022-08-25T08:17:38;5.38;;;2.63;;
52386;SDS011;38317;53.084;6.960;2022-08-25T08:20:04;4.95;;;2.55;;
52386;SDS011;38317;53.084;6.960;2022-08-25T08:22:34;4.88;;;2.40;;
52386;SDS011;38317;53.084;6.960;2022-08-25T08:25:00;5.80;;;2.58;;
52386;SDS011;38317;53.084;6.960;2022-08-25T08:27:26;6.38;;;2.55;;
52386;SDS011;38317;53.084;6.960;2022-08-25T08:29:52;5.80;;;2.55;;
52386;SDS011;38317;53.084;6.960;2022-08-25T08:32:18;5.60;;;2.58;;
52386;SDS011;38317;53.084;6.960;2022-08-25T08:34:44;4.18;;;2.20;;
52386;SDS011;38317;53.084;6.960;2022-08-25T08:37:11;5.20;;;2.90;;
52386;SDS011;38317;53.084;6.960;2022-08-25T08:39:37;5.60;;;2.78;;
52386;SDS011;38317;53.084;6.960;2022-08-25T08:50:29;4.15;;;2.00;;
52386;SDS011;38317;53.084;6.960;2022-08-25T08:56:18;4.05;;;2.22;;
52386;SDS011;38317;53.084;6.960;2022-08-25T08:58:54;4.43;;;2.38;;
52386;SDS011;38317;53.084;6.960;2022-08-25T09:01:33;4.65;;;2.15;;
52386;SDS011;38317;53.084;6.960;2022-08-25T09:06:45;5.45;;;2.10;;
52386;SDS011;38317;53.084;6.960;2022-08-25T09:09:29;3.40;;;2.08;;
52386;SDS011;38317;53.084;6.960;2022-08-25T09:31:12;4.32;;;1.80;;
52386;SDS011;38317;53.084;6.960;2022-08-25T09:33:54;3.15;;;1.75;;
52386;SDS011;38317;53.084;6.960;2022-08-25T09:36:22;6.00;;;1.90;;
52386;SDS011;38317;53.084;6.960;2022-08-25T09:38:48;5.55;;;1.90;;
52386;SDS011;38317;53.084;6.960;2022-08-25T09:41:15;5.05;;;1.80;;
52386;SDS011;38317;53.084;6.960;2022-08-25T09:43:43;5.22;;;2.08;;
52386;SDS011;38317;53.084;6.960;2022-08-25T09:46:24;5.13;;;1.98;;
52386;SDS011;38317;53.084;6.960;2022-08-25T09:48:53;5.25;;;1.67;;
52386;SDS011;38317;53.084;6.960;2022-08-25T09:51:35;4.00;;;1.88;;
52386;SDS011;38317;53.084;6.960;2022-08-25T09:56:54;3.55;;;1.58;;
52386;SDS011;38317;53.084;6.960;2022-08-25T10:01:59;4.78;;;1.90;;
52386;SDS011;38317;53.084;6.960;2022-08-25T10:06:58;3.47;;;1.80;;
52386;SDS011;38317;53.084;6.960;2022-08-25T10:12:13;3.35;;;1.60;;
52386;SDS011;38317;53.084;6.960;2022-08-25T10:14:41;3.95;;;1.63;;
52386;SDS011;38317;53.084;6.960;2022-08-25T10:17:18;2.38;;;1.40;;
52386;SDS011;38317;53.084;6.960;2022-08-25T10:22:47;4.05;;;1.60;;
52386;SDS011;38317;53.084;6.960;2022-08-25T10:25:15;2.40;;;1.38;;
52386;SDS011;38317;53.084;6.960;2022-08-25T10:27:54;4.28;;;1.58;;
52386;SDS011;38317;53.084;6.960;2022-08-25T10:30:49;5.97;;;1.60;;
52386;SDS011;38317;53.084;6.960;2022-08-25T10:36:52;2.55;;;1.50;;
52386;SDS011;38317;53.084;6.960;2022-08-25T10:39:15;6.30;;;1.50;;
52386;SDS011;38317;53.084;6.960;2022-08-25T10:42:10;3.08;;;1.60;;
52386;SDS011;38317;53.084;6.960;2022-08-25T10:44:50;3.97;;;1.50;;
52386;SDS011;38317;53.084;6.960;2022-08-25T10:48:32;2.40;;;1.38;;
52386;SDS011;38317;53.084;6.960;2022-08-25T10:51:22;3.08;;;1.60;;
52386;SDS011;38317;53.084;6.960;2022-08-25T10:54:18;2.63;;;1.50;;
52386;SDS011;38317;53.084;6.960;2022-08-25T10:57:02;2.83;;;1.50;;
52386;SDS011;38317;53.084;6.960;2022-08-25T10:59:46;3.92;;;1.55;;
52386;SDS011;38317;53.084;6.960;2022-08-25T11:05:24;2.88;;;1.40;;
52386;SDS011;38317;53.084;6.960;2022-08-25T11:08:21;3.00;;;1.50;;
52386;SDS011;38317;53.084;6.960;2022-08-25T11:11:36;2.80;;;1.53;;
52386;SDS011;38317;53.084;6.960;2022-08-25T11:13:59;2.65;;;1.17;;
52386;SDS011;38317;53.084;6.960;2022-08-25T11:21:51;6.20;;;1.30;;
52386;SDS011;38317;53.084;6.960;2022-08-25T11:27:23;2.90;;;1.48;;
52386;SDS011;38317;53.084;6.960;2022-08-25T11:30:04;2.22;;;1.33;;
52386;SDS011;38317;53.084;6.960;2022-08-25T11:32:36;4.32;;;1.60;;
52386;SDS011;38317;53.084;6.960;2022-08-25T11:35:04;2.95;;;1.42;;
52386;SDS011;38317;53.084;6.960;2022-08-25T11:37:32;7.90;;;1.55;;
52386;SDS011;38317;53.084;6.960;2022-08-25T11:51:04;4.63;;;1.60;;
52386;SDS011;38317;53.084;6.960;2022-08-25T11:53:33;2.65;;;1.50;;
52386;SDS011;38317;53.084;6.960;2022-08-25T11:56:50;2.38;;;1.48;;
52386;SDS011;38317;53.084;6.960;2022-08-25T11:59:02;3.53;;;1.38;;
52386;SDS011;38317;53.084;6.960;2022-08-25T12:15:20;3.42;;;1.70;;
52386;SDS011;38317;53.084;6.960;2022-08-25T12:23:28;2.72;;;1.40;;
52386;SDS011;38317;53.084;6.960;2022-08-25T12:26:17;3.20;;;1.50;;
52386;SDS011;38317;53.084;6.960;2022-08-25T12:29:09;2.20;;;1.40;;
52386;SDS011;38317;53.084;6.960;2022-08-25T12:31:50;4.13;;;1.48;;
52386;SDS011;38317;53.084;6.960;2022-08-25T12:37:13;2.63;;;1.50;;
52386;SDS011;38317;53.084;6.960;2022-08-25T12:39:48;3.55;;;1.40;;
52386;SDS011;38317;53.084;6.960;2022-08-25T12:42:34;4.00;;;1.45;;
52386;SDS011;38317;53.084;6.960;2022-08-25T12:45:13;4.75;;;1.52;;
52386;SDS011;38317;53.084;6.960;2022-08-25T12:47:46;4.07;;;1.48;;
52386;SDS011;38317;53.084;6.960;2022-08-25T12:55:50;4.20;;;1.83;;
52386;SDS011;38317;53.084;6.960;2022-08-25T12:58:21;3.35;;;1.40;;
52386;SDS011;38317;53.084;6.960;2022-08-25T13:12:06;2.15;;;1.40;;
52386;SDS011;38317;53.084;6.960;2022-08-25T13:14:41;3.58;;;1.50;;
52386;SDS011;38317;53.084;6.960;2022-08-25T13:19:36;2.28;;;1.30;;
52386;SDS011;38317;53.084;6.960;2022-08-25T13:22:08;6.47;;;1.90;;
52386;SDS011;38317;53.084;6.960;2022-08-25T13:24:41;5.07;;;1.50;;
52386;SDS011;38317;53.084;6.960;2022-08-25T13:27:09;2.63;;;1.20;;
52386;SDS011;38317;53.084;6.960;2022-08-25T13:29:49;3.22;;;1.42;;
52386;SDS011;38317;53.084;6.960;2022-08-25T13:32:24;3.53;;;1.90;;
52386;SDS011;38317;53.084;6.960;2022-08-25T13:34:54;3.00;;;1.40;;
52386;SDS011;38317;53.084;6.960;2022-08-25T13:37:42;1.95;;;1.40;;
52386;SDS011;38317;53.084;6.960;2022-08-25T13:43:02;2.47;;;1.60;;
52386;SDS011;38317;53.084;6.960;2022-08-25T13:45:31;7.57;;;2.00;;
52386;SDS011;38317;53.084;6.960;2022-08-25T13:48:01;5.03;;;1.55;;
52386;SDS011;38317;53.084;6.960;2022-08-25T13:52:56;3.40;;;1.70;;
52386;SDS011;38317;53.084;6.960;2022-08-25T13:56:10;4.65;;;1.85;;
52386;SDS011;38317;53.084;6.960;2022-08-25T13:58:21;2.78;;;1.50;;
52386;SDS011;38317;53.084;6.960;2022-08-25T14:03:43;4.75;;;1.50;;
52386;SDS011;38317;53.084;6.960;2022-08-25T14:08:43;3.05;;;1.40;;
52386;SDS011;38317;53.084;6.960;2022-08-25T14:11:29;2.38;;;1.40;;
52386;SDS011;38317;53.084;6.960;2022-08-25T14:14:04;2.22;;;1.20;;
52386;SDS011;38317;53.084;6.960;2022-08-25T14:16:44;3.22;;;1.50;;
52386;SDS011;38317;53.084;6.960;2022-08-25T14:19:22;2.95;;;1.30;;
52386;SDS011;38317;53.084;6.960;2022-08-25T14:21:49;3.30;;;1.48;;
52386;SDS011;38317;53.084;6.960;2022-08-25T14:24:17;4.07;;;1.38;;
52386;SDS011;38317;53.084;6.960;2022-08-25T14:26:45;3.65;;;1.30;;
52386;SDS011;38317;53.084;6.960;2022-08-25T14:29:12;4.32;;;1.65;;
52386;SDS011;38317;53.084;6.960;2022-08-25T14:31:39;3.08;;;1.48;;
52386;SDS011;38317;53.084;6.960;2022-08-25T14:34:17;2.65;;;1.67;;
52386;SDS011;38317;53.084;6.960;2022-08-25T14:36:46;4.63;;;1.75;;
52386;SDS011;38317;53.084;6.960;2022-08-25T14:39:12;4.80;;;1.50;;
52386;SDS011;38317;53.084;6.960;2022-08-25T14:41:39;2.58;;;1.55;;
52386;SDS011;38317;53.084;6.960;2022-08-25T14:44:06;3.90;;;1.92;;
52386;SDS011;38317;53.084;6.960;2022-08-25T14:46:35;2.38;;;1.40;;
52386;SDS011;38317;53.084;6.960;2022-08-25T14:49:09;3.67;;;1.50;;
52386;SDS011;38317;53.084;6.960;2022-08-25T14:51:39;3.83;;;1.90;;
52386;SDS011;38317;53.084;6.960;2022-08-25T14:54:08;3.72;;;1.70;;
52386;SDS011;38317;53.084;6.960;2022-08-25T14:56:37;3.38;;;1.80;;
52386;SDS011;38317;53.084;6.960;2022-08-25T14:59:03;3.60;;;1.92;;
52386;SDS011;38317;53.084;6.960;2022-08-25T15:01:29;4.18;;;1.98;;
52386;SDS011;38317;53.084;6.960;2022-08-25T15:04:05;3.50;;;1.75;;
52386;SDS011;38317;53.084;6.960;2022-08-25T15:06:35;3.17;;;1.50;;
52386;SDS011;38317;53.084;6.960;2022-08-25T15:09:02;2.67;;;1.52;;
52386;SDS011;38317;53.084;6.960;2022-08-25T15:11:32;6.10;;;1.70;;
52386;SDS011;38317;53.084;6.960;2022-08-25T15:13:58;3.70;;;1.55;;
52386;SDS011;38317;53.084;6.960;2022-08-25T15:16:33;3.05;;;1.73;;
52386;SDS011;38317;53.084;6.960;2022-08-25T15:19:07;3.83;;;1.73;;
52386;SDS011;38317;53.084;6.960;2022-08-25T15:21:38;3.00;;;1.58;;
52386;SDS011;38317;53.084;6.960;2022-08-25T15:24:04;2.42;;;1.42;;
52386;SDS011;38317;53.084;6.960;2022-08-25T15:26:37;3.55;;;1.55;;
52386;SDS011;38317;53.084;6.960;2022-08-25T15:29:07;4.30;;;1.65;;
52386;SDS011;38317;53.084;6.960;2022-08-25T15:31:32;3.70;;;1.98;;
52386;SDS011;38317;53.084;6.960;2022-08-25T15:33:58;2.22;;;1.50;;
52386;SDS011;38317;53.084;6.960;2022-08-25T15:36:24;2.72;;;1.58;;
52386;SDS011;38317;53.084;6.960;2022-08-25T15:38:51;3.83;;;1.73;;
52386;SDS011;38317;53.084;6.960;2022-08-25T15:41:17;4.10;;;1.92;;
52386;SDS011;38317;53.084;6.960;2022-08-25T15:43:44;3.58;;;1.50;;
52386;SDS011;38317;53.084;6.960;2022-08-25T15:46:10;3.45;;;1.92;;
52386;SDS011;38317;53.084;6.960;2022-08-25T15:48:39;4.45;;;2.08;;
52386;SDS011;38317;53.084;6.960;2022-08-25T15:51:05;7.63;;;2.03;;
52386;SDS011;38317;53.084;6.960;2022-08-25T15:53:33;4.00;;;1.80;;
52386;SDS011;38317;53.084;6.960;2022-08-25T15:56:00;4.47;;;1.90;;
52386;SDS011;38317;53.084;6.960;2022-08-25T15:58:28;5.15;;;1.98;;
52386;SDS011;38317;53.084;6.960;2022-08-25T16:00:53;4.25;;;2.05;;
52386;SDS011;38317;53.084;6.960;2022-08-25T16:03:19;2.70;;;1.67;;
52386;SDS011;38317;53.084;6.960;2022-08-25T16:05:45;4.95;;;1.88;;
52386;SDS011;38317;53.084;6.960;2022-08-25T16:08:10;5.00;;;1.92;;
52386;SDS011;38317;53.084;6.960;2022-08-25T16:10:38;3.08;;;2.00;;
52386;SDS011;38317;53.084;6.960;2022-08-25T16:13:05;3.75;;;1.75;;
52386;SDS011;38317;53.084;6.960;2022-08-25T16:15:32;3.65;;;2.00;;
52386;SDS011;38317;53.084;6.960;2022-08-25T16:17:58;3.80;;;2.20;;
52386;SDS011;38317;53.084;6.960;2022-08-25T16:20:28;4.97;;;2.25;;
52386;SDS011;38317;53.084;6.960;2022-08-25T16:22:55;2.80;;;2.00;;
52386;SDS011;38317;53.084;6.960;2022-08-25T16:25:24;5.18;;;2.40;;
52386;SDS011;38317;53.084;6.960;2022-08-25T16:27:50;3.60;;;2.15;;
52386;SDS011;38317;53.084;6.960;2022-08-25T16:30:16;4.82;;;2.30;;
52386;SDS011;38317;53.084;6.960;2022-08-25T16:32:42;4.05;;;2.03;;
52386;SDS011;38317;53.084;6.960;2022-08-25T16:35:09;2.70;;;1.73;;
52386;SDS011;38317;53.084;6.960;2022-08-25T16:37:35;3.75;;;1.98;;
52386;SDS011;38317;53.084;6.960;2022-08-25T16:40:01;4.47;;;2.20;;
52386;SDS011;38317;53.084;6.960;2022-08-25T16:42:27;3.70;;;1.92;;
52386;SDS011;38317;53.084;6.960;2022-08-25T16:44:54;3.47;;;1.90;;
52386;SDS011;38317;53.084;6.960;2022-08-25T16:47:20;3.35;;;2.00;;
52386;SDS011;38317;53.084;6.960;2022-08-25T16:49:46;4.78;;;2.22;;
52386;SDS011;38317;53.084;6.960;2022-08-25T16:52:12;3.22;;;1.73;;
52386;SDS011;38317;53.084;6.960;2022-08-25T16:54:57;3.72;;;1.90;;
52386;SDS011;38317;53.084;6.960;2022-08-25T17:00:18;3.13;;;1.98;;
52386;SDS011;38317;53.084;6.960;2022-08-25T17:02:46;4.55;;;1.90;;
52386;SDS011;38317;53.084;6.960;2022-08-25T17:05:13;4.70;;;1.90;;
52386;SDS011;38317;53.084;6.960;2022-08-25T17:07:39;3.78;;;2.25;;
52386;SDS011;38317;53.084;6.960;2022-08-25T17:10:05;2.88;;;1.92;;
52386;SDS011;38317;53.084;6.960;2022-08-25T17:12:31;4.63;;;2.50;;
52386;SDS011;38317;53.084;6.960;2022-08-25T17:14:57;5.18;;;2.40;;
52386;SDS011;38317;53.084;6.960;2022-08-25T17:17:23;3.75;;;2.10;;
52386;SDS011;38317;53.084;6.960;2022-08-25T17:19:49;4.97;;;2.00;;